createdAt,value
2018-10-02T00:00:15.410Z,5.07
2018-10-02T00:02:42.813Z,5.40
2018-10-02T00:05:10.287Z,5.10
2018-10-02T00:07:37.709Z,4.67
2018-10-02T00:10:05.125Z,4.43
2018-10-02T00:12:37.877Z,4.50
2018-10-02T00:15:05.834Z,4.77
2018-10-02T00:17:33.301Z,5.43
2018-10-02T00:20:00.750Z,4.33
2018-10-02T00:22:28.161Z,4.90
2018-10-02T00:24:55.554Z,4.33
2018-10-02T00:27:23.246Z,4.60
2018-10-02T00:29:50.653Z,3.83
2018-10-02T00:32:18.190Z,4.37
2018-10-02T00:34:45.592Z,4.87
2018-10-02T00:37:13.006Z,4.20
2018-10-02T00:39:40.404Z,4.27
2018-10-02T00:42:07.981Z,4.23
2018-10-02T00:44:35.452Z,4.00
2018-10-02T00:47:02.910Z,4.13
2018-10-02T00:49:30.357Z,4.27
2018-10-02T00:51:57.995Z,3.67
2018-10-02T00:54:25.392Z,3.73
2018-10-02T00:56:52.833Z,3.77
2018-10-02T00:59:20.364Z,4.33
2018-10-02T01:01:47.821Z,3.60
2018-10-02T01:04:15.240Z,4.60
2018-10-02T01:06:42.641Z,3.70
2018-10-02T01:09:11.772Z,3.73
2018-10-02T01:11:39.590Z,3.13
2018-10-02T01:14:07.003Z,2.63
2018-10-02T01:16:34.402Z,2.93
2018-10-02T01:19:01.835Z,3.43
2018-10-02T01:21:29.233Z,2.77
2018-10-02T01:23:56.677Z,2.90
2018-10-02T01:26:24.160Z,2.50
2018-10-02T01:28:51.554Z,2.90
2018-10-02T01:31:18.986Z,2.90
2018-10-02T01:33:46.424Z,2.60
2018-10-02T01:36:13.953Z,3.20
2018-10-02T01:38:41.350Z,2.87
2018-10-02T01:41:08.885Z,2.80
2018-10-02T01:43:36.292Z,2.73
2018-10-02T01:46:03.941Z,3.50
2018-10-02T01:48:31.370Z,3.63
2018-10-02T01:50:59.037Z,3.63
2018-10-02T01:53:26.527Z,3.90
2018-10-02T01:55:53.961Z,4.10
2018-10-02T01:58:21.377Z,4.13
2018-10-02T02:03:21.558Z,4.90
2018-10-02T02:05:49.006Z,4.93
2018-10-02T02:08:16.385Z,4.93
2018-10-02T02:10:43.882Z,6.37
2018-10-02T02:13:11.275Z,6.13
2018-10-02T02:15:38.690Z,5.97
2018-10-02T02:18:06.625Z,6.10
2018-10-02T02:20:34.117Z,6.47
2018-10-02T02:24:30.950Z,6.87
2018-10-02T02:26:58.693Z,5.87
2018-10-02T02:29:26.189Z,6.20
2018-10-02T02:31:53.678Z,6.53
2018-10-02T02:34:21.073Z,6.43
2018-10-02T02:36:48.506Z,7.60
2018-10-02T02:39:15.942Z,6.43
2018-10-02T02:41:43.382Z,7.63
2018-10-02T02:44:10.866Z,7.50
2018-10-02T02:46:38.306Z,7.47
2018-10-02T02:49:11.047Z,7.60
2018-10-02T02:51:38.522Z,7.60
2018-10-02T02:54:05.976Z,7.93
2018-10-02T02:56:33.429Z,7.20
2018-10-02T02:59:01.475Z,7.57
2018-10-02T03:01:29.513Z,6.60
2018-10-02T03:03:57.175Z,6.97
2018-10-02T03:06:24.693Z,6.20
2018-10-02T03:08:52.093Z,6.70
2018-10-02T03:11:19.569Z,7.30
2018-10-02T03:13:47.006Z,6.57
2018-10-02T03:16:14.428Z,6.00
2018-10-02T03:18:41.872Z,6.37
2018-10-02T03:21:09.328Z,5.20
2018-10-02T03:23:36.829Z,5.50
2018-10-02T03:26:04.260Z,6.10
2018-10-02T03:28:31.853Z,5.73
2018-10-02T03:30:59.256Z,5.27
2018-10-02T03:33:26.650Z,5.30
2018-10-02T03:35:54.082Z,5.87
2018-10-02T03:38:21.472Z,5.60
2018-10-02T03:40:48.971Z,5.20
2018-10-02T03:43:16.415Z,4.90
2018-10-02T03:45:43.816Z,5.27
2018-10-02T03:48:11.249Z,4.90
2018-10-02T03:50:38.678Z,4.70
2018-10-02T03:53:06.118Z,4.57
2018-10-02T03:55:33.522Z,4.70
2018-10-02T03:58:01.193Z,4.23
2018-10-02T04:00:28.732Z,4.37
2018-10-02T04:02:56.133Z,4.83
2018-10-02T04:05:23.599Z,5.10
2018-10-02T04:07:51.104Z,4.77
2018-10-02T04:10:18.617Z,3.60
2018-10-02T04:12:46.477Z,5.20
2018-10-02T04:15:13.913Z,5.33
2018-10-02T04:17:41.329Z,5.30
2018-10-02T04:20:08.779Z,5.23
2018-10-02T04:22:36.186Z,5.40
2018-10-02T04:25:03.625Z,5.90
2018-10-02T04:27:31.069Z,5.33
2018-10-02T04:29:58.661Z,5.87
2018-10-02T04:32:26.058Z,6.20
2018-10-02T04:34:53.510Z,5.50
2018-10-02T04:37:20.901Z,6.00
2018-10-02T04:39:48.318Z,4.90
2018-10-02T04:42:15.740Z,6.00
2018-10-02T04:44:43.164Z,6.23
2018-10-02T04:47:10.625Z,5.80
2018-10-02T04:49:38.020Z,6.80
2018-10-02T04:52:05.413Z,6.10
2018-10-02T04:54:32.886Z,6.63
2018-10-02T04:57:00.300Z,6.87
2018-10-02T04:59:27.881Z,6.00
2018-10-02T05:01:55.336Z,5.03
2018-10-02T05:04:23.018Z,5.57
2018-10-02T05:06:50.373Z,6.40
2018-10-02T05:09:17.729Z,5.80
2018-10-02T05:11:45.108Z,5.17
2018-10-02T05:14:12.732Z,4.77
2018-10-02T05:16:40.077Z,5.07
2018-10-02T05:19:07.546Z,5.67
2018-10-02T05:21:34.902Z,4.87
2018-10-02T05:24:02.259Z,5.67
2018-10-02T05:26:29.642Z,6.03
2018-10-02T05:28:57.004Z,5.57
2018-10-02T05:31:24.634Z,5.40
2018-10-02T05:33:52.049Z,5.77
2018-10-02T05:36:19.421Z,5.23
2018-10-02T05:38:46.812Z,5.30
2018-10-02T05:41:14.218Z,6.07
2018-10-02T05:43:41.714Z,5.23
2018-10-02T05:46:09.297Z,6.37
2018-10-02T05:48:36.689Z,6.03
2018-10-02T05:51:04.165Z,5.03
2018-10-02T05:53:31.521Z,6.83
2018-10-02T05:55:58.917Z,6.37
2018-10-02T05:58:26.324Z,6.07
2018-10-02T06:00:54.011Z,6.30
2018-10-02T06:03:21.411Z,5.57
2018-10-02T06:05:48.789Z,6.00
2018-10-02T06:08:16.161Z,6.07
2018-10-02T06:10:43.750Z,5.33
2018-10-02T06:13:11.116Z,5.70
2018-10-02T06:15:38.531Z,6.83
2018-10-02T06:18:06.002Z,6.10
2018-10-02T06:20:33.351Z,5.80
2018-10-02T06:23:00.730Z,6.00
2018-10-02T06:25:28.112Z,5.67
2018-10-02T06:27:55.478Z,5.77
2018-10-02T06:30:22.888Z,4.67
2018-10-02T06:32:50.536Z,4.63
2018-10-02T06:35:17.840Z,5.27
2018-10-02T06:37:45.251Z,3.93
2018-10-02T06:40:12.654Z,4.50
2018-10-02T06:42:40.040Z,4.87
2018-10-02T06:45:08.303Z,4.90
2018-10-02T06:47:35.655Z,5.40
2018-10-02T06:50:03.066Z,5.27
2018-10-02T06:52:30.696Z,5.20
2018-10-02T06:54:57.862Z,5.07
2018-10-02T06:57:25.237Z,4.53
2018-10-02T06:59:52.632Z,3.83
2018-10-02T07:02:20.041Z,4.90
2018-10-02T07:04:47.409Z,4.10
2018-10-02T07:07:14.785Z,4.83
2018-10-02T07:09:42.318Z,4.53
2018-10-02T07:12:09.694Z,2.97
2018-10-02T07:14:37.105Z,3.20
2018-10-02T07:17:04.492Z,5.50
2018-10-02T07:19:31.889Z,4.63
2018-10-02T07:21:59.259Z,4.27
2018-10-02T07:24:26.657Z,3.73
2018-10-02T07:26:54.205Z,3.83
2018-10-02T07:29:21.533Z,4.60
2018-10-02T07:31:49.027Z,4.23
2018-10-02T07:34:16.560Z,3.50
2018-10-02T07:36:43.959Z,4.10
2018-10-02T07:39:11.339Z,4.37
2018-10-02T07:41:38.753Z,4.37
2018-10-02T07:44:06.391Z,3.40
2018-10-02T07:46:33.812Z,2.70
2018-10-02T07:49:01.209Z,3.20
2018-10-02T07:51:28.682Z,3.43
2018-10-02T07:53:56.197Z,3.73
2018-10-02T07:56:23.584Z,3.40
2018-10-02T07:58:51.045Z,3.60
2018-10-02T08:01:18.426Z,4.00
2018-10-02T08:03:45.928Z,4.00
2018-10-02T08:06:13.366Z,3.87
2018-10-02T08:08:40.819Z,3.90
2018-10-02T08:11:08.309Z,3.40
2018-10-02T08:13:35.739Z,3.70
2018-10-02T08:16:03.252Z,3.43
2018-10-02T08:18:30.685Z,3.67
2018-10-02T08:20:58.068Z,3.00
2018-10-02T08:23:25.579Z,3.93
2018-10-02T08:25:52.920Z,2.83
2018-10-02T08:28:21.533Z,3.93
2018-10-02T08:30:49.547Z,4.50
2018-10-02T08:33:16.930Z,3.47
2018-10-02T08:35:44.475Z,3.67
2018-10-02T08:38:11.857Z,3.53
2018-10-02T08:40:39.258Z,3.33
2018-10-02T08:43:06.863Z,3.30
2018-10-02T08:45:34.281Z,3.37
2018-10-02T08:48:01.797Z,3.17
2018-10-02T08:50:29.259Z,3.50
2018-10-02T08:52:56.713Z,3.73
2018-10-02T08:55:24.141Z,3.40
2018-10-02T08:57:51.513Z,4.23
2018-10-02T09:00:19.001Z,3.00
2018-10-02T09:02:46.439Z,2.67
2018-10-02T09:05:13.818Z,3.47
2018-10-02T09:07:41.525Z,3.13
2018-10-02T09:10:08.893Z,2.43
2018-10-02T09:12:36.282Z,2.67
2018-10-02T09:15:03.811Z,2.37
2018-10-02T09:17:31.164Z,2.97
2018-10-02T09:19:58.544Z,4.00
2018-10-02T09:22:25.990Z,2.57
2018-10-02T09:24:53.371Z,2.57
2018-10-02T09:27:20.909Z,2.53
2018-10-02T09:29:53.620Z,2.17
2018-10-02T09:32:26.453Z,2.57
2018-10-02T09:34:59.166Z,3.30
2018-10-02T09:37:32.138Z,2.60
2018-10-02T09:40:04.971Z,2.80
2018-10-02T09:43:39.314Z,3.40
2018-10-02T09:46:06.712Z,2.40
2018-10-02T09:48:34.077Z,3.00
2018-10-02T09:51:01.549Z,2.43
2018-10-02T09:53:28.950Z,2.60
2018-10-02T09:55:56.334Z,2.83
2018-10-02T09:58:23.906Z,3.37
2018-10-02T10:01:11.505Z,2.93
2018-10-02T10:03:38.850Z,3.13
2018-10-02T10:06:06.706Z,3.03
2018-10-02T10:08:34.584Z,3.37
2018-10-02T10:11:02.037Z,3.40
2018-10-02T10:13:29.397Z,2.80
2018-10-02T10:15:56.817Z,2.03
2018-10-02T10:18:24.169Z,2.27
2018-10-02T10:20:51.537Z,2.50
2018-10-02T10:23:19.229Z,1.97
2018-10-02T10:25:46.619Z,2.57
2018-10-02T10:28:14.122Z,2.40
2018-10-02T10:30:41.542Z,1.93
2018-10-02T10:33:08.926Z,1.77
2018-10-02T10:35:36.345Z,2.50
2018-10-02T10:38:03.752Z,2.00
2018-10-02T10:40:31.224Z,2.40
2018-10-02T10:42:59.126Z,2.27
2018-10-02T10:45:26.541Z,2.80
2018-10-02T10:47:54.001Z,2.27
2018-10-02T10:50:21.477Z,2.17
2018-10-02T10:52:48.898Z,1.63
2018-10-02T10:55:26.812Z,2.00
2018-10-02T10:57:54.221Z,1.40
2018-10-02T11:00:22.241Z,1.53
2018-10-02T11:02:49.868Z,1.60
2018-10-02T11:05:17.496Z,1.00
2018-10-02T11:07:44.998Z,1.20
2018-10-02T11:10:12.861Z,1.63
2018-10-02T11:12:40.521Z,1.50
2018-10-02T11:15:08.150Z,1.57
2018-10-02T11:17:35.546Z,1.20
2018-10-02T11:20:03.941Z,1.30
2018-10-02T11:22:31.301Z,1.23
2018-10-02T11:24:58.656Z,1.50
2018-10-02T11:27:26.104Z,1.10
2018-10-02T11:29:53.532Z,1.13
2018-10-02T11:32:20.941Z,1.60
2018-10-02T11:34:48.357Z,1.20
2018-10-02T11:37:15.775Z,1.80
2018-10-02T11:39:43.289Z,1.80
2018-10-02T11:42:10.689Z,1.47
2018-10-02T11:44:38.140Z,1.10
2018-10-02T11:47:05.500Z,1.27
2018-10-02T11:49:32.934Z,1.60
2018-10-02T11:52:00.377Z,1.40
2018-10-02T11:54:27.733Z,1.30
2018-10-02T11:56:55.229Z,1.87
2018-10-02T11:59:22.656Z,1.47
2018-10-02T12:01:50.017Z,1.30
2018-10-02T12:04:17.417Z,2.07
2018-10-02T12:06:44.837Z,1.50
2018-10-02T12:09:12.209Z,1.80
2018-10-02T12:11:39.652Z,1.50
2018-10-02T12:14:07.165Z,1.30
2018-10-02T12:16:34.622Z,1.50
2018-10-02T12:19:02.024Z,1.57
2018-10-02T12:21:29.421Z,1.60
2018-10-02T12:23:56.791Z,1.40
2018-10-02T12:26:24.183Z,1.67
2018-10-02T12:28:51.572Z,1.60
2018-10-02T12:31:19.135Z,1.40
2018-10-02T12:33:46.453Z,1.80
2018-10-02T12:36:13.979Z,1.60
2018-10-02T12:38:41.387Z,1.90
2018-10-02T12:41:08.905Z,1.73
2018-10-02T12:43:36.301Z,1.63
2018-10-02T12:46:03.866Z,2.13
2018-10-02T12:48:31.241Z,1.97
2018-10-02T12:50:58.757Z,2.17
2018-10-02T12:53:26.278Z,1.80
2018-10-02T12:55:53.665Z,1.90
2018-10-02T12:58:21.179Z,2.10
2018-10-02T13:00:48.724Z,2.00
2018-10-02T13:03:16.145Z,2.23
2018-10-02T13:05:43.657Z,2.43
2018-10-02T13:08:11.020Z,2.00
2018-10-02T13:10:38.413Z,2.00
2018-10-02T13:13:05.804Z,1.70
2018-10-02T13:15:33.159Z,1.90
2018-10-02T13:18:00.558Z,1.33
2018-10-02T13:20:27.984Z,1.40
2018-10-02T13:22:55.466Z,1.30
2018-10-02T13:25:23.003Z,1.33
2018-10-02T13:27:50.352Z,1.40
2018-10-02T13:30:17.785Z,1.43
2018-10-02T13:32:45.248Z,1.27
2018-10-02T13:35:12.736Z,1.17
2018-10-02T13:37:40.175Z,1.23
2018-10-02T13:40:07.598Z,1.30
2018-10-02T13:42:35.072Z,1.30
2018-10-02T13:45:02.469Z,1.50
2018-10-02T13:47:30.478Z,1.47
2018-10-02T13:49:57.857Z,1.47
2018-10-02T13:52:25.213Z,1.47
2018-10-02T13:54:52.600Z,1.53
2018-10-02T13:57:20.097Z,1.80
2018-10-02T13:59:47.477Z,1.77
2018-10-02T14:02:14.873Z,1.80
2018-10-02T14:04:42.317Z,1.70
2018-10-02T14:07:09.677Z,1.77
2018-10-02T14:09:37.052Z,1.47
2018-10-02T14:12:04.525Z,1.57
2018-10-02T14:14:31.884Z,1.70
2018-10-02T14:16:59.284Z,1.60
2018-10-02T14:19:27.481Z,1.90
2018-10-02T14:21:54.892Z,2.10
2018-10-02T14:24:22.358Z,2.00
2018-10-02T14:26:49.801Z,1.63
2018-10-02T14:29:17.185Z,1.93
2018-10-02T14:31:45.535Z,1.90
2018-10-02T14:34:12.899Z,1.53
2018-10-02T14:36:40.464Z,1.50
2018-10-02T14:39:08.692Z,1.93
2018-10-02T14:41:36.320Z,2.07
2018-10-02T14:44:04.057Z,1.97
2018-10-02T14:46:31.594Z,1.97
2018-10-02T14:48:58.950Z,1.70
2018-10-02T14:51:26.521Z,1.70
2018-10-02T14:53:53.910Z,2.00
2018-10-02T14:56:21.339Z,2.30
2018-10-02T14:58:48.735Z,2.10
2018-10-02T15:01:16.245Z,2.17
2018-10-02T15:03:43.609Z,2.20
2018-10-02T15:06:10.979Z,2.00
2018-10-02T15:08:38.356Z,2.70
2018-10-02T15:11:05.737Z,2.13
2018-10-02T15:13:33.092Z,2.50
2018-10-02T15:16:00.617Z,2.30
2018-10-02T15:18:27.976Z,2.43
2018-10-02T15:20:55.344Z,2.70
2018-10-02T15:23:22.808Z,2.80
2018-10-02T15:25:50.192Z,2.53
2018-10-02T15:28:17.540Z,2.27
2018-10-02T15:30:44.937Z,2.27
2018-10-02T15:33:12.301Z,2.43
2018-10-02T15:35:39.673Z,2.60
2018-10-02T15:38:07.221Z,2.50
2018-10-02T15:40:34.533Z,2.23
2018-10-02T15:43:01.896Z,2.07
2018-10-02T15:45:29.389Z,2.03
2018-10-02T15:47:56.909Z,2.23
2018-10-02T15:50:24.296Z,2.17
2018-10-02T15:52:51.680Z,2.03
2018-10-02T15:55:19.048Z,2.83
2018-10-02T15:57:46.527Z,2.67
2018-10-02T16:00:14.014Z,2.50
2018-10-02T16:02:41.373Z,2.30
2018-10-02T16:05:08.807Z,2.90
2018-10-02T16:07:36.272Z,2.93
2018-10-02T16:10:03.677Z,2.47
2018-10-02T16:12:31.041Z,2.57
2018-10-02T16:14:58.452Z,2.60
2018-10-02T16:17:27.617Z,2.57
2018-10-02T16:19:54.961Z,3.03
2018-10-02T16:22:22.371Z,3.23
2018-10-02T16:24:49.899Z,1.97
2018-10-02T16:27:17.169Z,3.00
2018-10-02T16:29:44.562Z,2.63
2018-10-02T16:32:12.041Z,2.30
2018-10-02T16:34:48.983Z,2.60
2018-10-02T16:37:06.888Z,2.43
2018-10-02T16:39:34.252Z,2.93
2018-10-02T16:42:01.875Z,2.70
2018-10-02T16:44:29.352Z,2.60
2018-10-02T16:46:56.939Z,3.37
2018-10-02T16:49:24.301Z,3.23
2018-10-02T16:51:51.717Z,4.83
2018-10-02T16:54:19.193Z,3.20
2018-10-02T16:56:46.614Z,3.47
2018-10-02T16:59:14.237Z,3.10
2018-10-02T17:01:41.633Z,2.80
2018-10-02T17:04:09.065Z,2.77
2018-10-02T17:06:36.426Z,4.53
2018-10-02T17:09:04.965Z,2.73
2018-10-02T17:11:32.354Z,2.57
2018-10-02T17:13:59.749Z,2.70
2018-10-02T17:16:27.121Z,2.47
2018-10-02T17:18:54.480Z,2.70
2018-10-02T17:21:22.008Z,2.53
2018-10-02T17:23:49.361Z,2.63
2018-10-02T17:26:16.708Z,2.60
2018-10-02T17:28:44.128Z,3.80
2018-10-02T17:31:11.769Z,3.23
2018-10-02T17:33:39.125Z,2.80
2018-10-02T17:36:06.528Z,3.73
2018-10-02T17:38:33.996Z,3.50
2018-10-02T17:41:01.350Z,3.00
2018-10-02T17:43:28.753Z,3.27
2018-10-02T17:45:56.122Z,2.33
2018-10-02T17:48:23.637Z,2.10
2018-10-02T17:50:51.198Z,2.60
2018-10-02T17:53:18.564Z,2.10
2018-10-02T17:55:45.929Z,2.27
2018-10-02T17:58:13.312Z,2.37
2018-10-02T18:00:40.673Z,2.23
2018-10-02T18:03:08.153Z,2.10
2018-10-02T18:05:35.924Z,2.47
2018-10-02T18:08:03.352Z,2.67
2018-10-02T18:10:31.144Z,2.37
2018-10-02T18:12:58.543Z,2.10
2018-10-02T18:15:26.118Z,2.83
2018-10-02T18:17:53.437Z,2.17
2018-10-02T18:20:20.825Z,2.10
2018-10-02T18:22:48.633Z,1.97
2018-10-02T18:25:16.001Z,2.00
2018-10-02T18:27:43.594Z,2.00
2018-10-02T18:30:10.976Z,2.17
2018-10-02T18:32:38.367Z,3.30
2018-10-02T18:35:05.768Z,2.00
2018-10-02T18:37:33.144Z,2.10
2018-10-02T18:40:00.632Z,2.10
2018-10-02T18:42:28.025Z,1.80
2018-10-02T18:44:55.397Z,2.20
2018-10-02T18:47:22.793Z,2.10
2018-10-02T18:49:50.289Z,2.40
2018-10-02T18:52:17.672Z,1.93
2018-10-02T18:54:45.034Z,2.53
2018-10-02T18:57:12.640Z,3.17
2018-10-02T18:59:40.141Z,2.67
2018-10-02T19:02:07.508Z,2.90
2018-10-02T19:04:34.986Z,2.50
2018-10-02T19:07:02.450Z,2.47
2018-10-02T19:09:29.880Z,2.77
2018-10-02T19:12:02.712Z,2.40
2018-10-02T19:14:30.224Z,2.10
2018-10-02T19:16:57.673Z,2.60
2018-10-02T19:19:30.495Z,2.00
2018-10-02T19:21:57.910Z,2.77
2018-10-02T19:24:25.432Z,2.23
2018-10-02T19:26:53.096Z,2.77
2018-10-02T19:29:20.735Z,1.90
2018-10-02T19:31:53.802Z,2.20
2018-10-02T19:34:21.263Z,2.33
2018-10-02T19:36:48.848Z,2.23
2018-10-02T19:39:21.342Z,1.93
2018-10-02T19:41:48.879Z,2.20
2018-10-02T19:44:16.332Z,2.23
2018-10-02T19:46:48.940Z,2.50
2018-10-02T19:49:18.760Z,2.40
2018-10-02T19:51:52.230Z,1.90
2018-10-02T19:54:26.143Z,2.23
2018-10-02T19:56:53.845Z,2.37
2018-10-02T19:59:21.633Z,2.40
2018-10-02T20:01:49.009Z,1.93
2018-10-02T20:04:16.510Z,2.40
2018-10-02T20:06:44.334Z,2.40
2018-10-02T20:09:12.210Z,2.30
2018-10-02T20:11:39.688Z,2.27
2018-10-02T20:14:07.200Z,2.60
2018-10-02T20:16:34.549Z,2.50
2018-10-02T20:19:01.961Z,2.43
2018-10-02T20:21:29.370Z,2.40
2018-10-02T20:23:56.733Z,2.50
2018-10-02T20:26:24.213Z,2.37
2018-10-02T20:28:51.633Z,2.60
2018-10-02T20:31:19.156Z,2.33
2018-10-02T20:33:46.565Z,2.37
2018-10-02T20:36:14.116Z,2.30
2018-10-02T20:38:41.505Z,2.57
2018-10-02T20:41:08.897Z,2.33
2018-10-02T20:43:36.261Z,2.77
2018-10-02T20:46:03.621Z,2.37
2018-10-02T20:48:31.389Z,2.70
2018-10-02T20:50:58.761Z,1.83
2018-10-02T20:53:26.125Z,2.07
2018-10-02T20:55:53.559Z,2.20
2018-10-02T20:58:20.961Z,2.00
2018-10-02T21:00:48.440Z,2.07
2018-10-02T21:03:15.922Z,2.17
2018-10-02T21:05:43.394Z,1.90
2018-10-02T21:08:10.777Z,2.00
2018-10-02T21:10:38.221Z,2.10
2018-10-02T21:13:05.621Z,2.43
2018-10-02T21:15:33.170Z,2.27
2018-10-02T21:18:00.469Z,2.43
2018-10-02T21:20:27.840Z,1.60
2018-10-02T21:22:55.209Z,2.03
2018-10-02T21:25:22.690Z,2.87
2018-10-02T21:27:50.041Z,1.93
2018-10-02T21:30:17.406Z,2.03
2018-10-02T21:32:44.804Z,2.33
2018-10-02T21:35:12.161Z,2.57
2018-10-02T21:37:39.597Z,2.20
2018-10-02T21:40:07.089Z,2.10
2018-10-02T21:42:34.497Z,2.00
2018-10-02T21:45:01.868Z,1.87
2018-10-02T21:47:29.257Z,1.77
2018-10-02T21:49:56.820Z,1.90
2018-10-02T21:52:24.185Z,1.60
2018-10-02T21:54:52.019Z,1.63
2018-10-02T21:57:19.396Z,1.43
2018-10-02T21:59:46.761Z,1.73
2018-10-02T22:02:14.191Z,1.80
2018-10-02T22:04:41.926Z,2.10
2018-10-02T22:07:09.677Z,2.07
2018-10-02T22:09:37.067Z,1.80
2018-10-02T22:12:04.585Z,2.00
2018-10-02T22:14:32.192Z,1.90
2018-10-02T22:16:59.753Z,2.40
2018-10-02T22:19:27.115Z,2.20
2018-10-02T22:21:54.560Z,2.43
2018-10-02T22:24:22.213Z,2.40
2018-10-02T22:26:49.589Z,2.20
2018-10-02T22:29:16.957Z,2.47
2018-10-02T22:31:44.390Z,2.73
2018-10-02T22:34:11.753Z,2.40
2018-10-02T22:36:39.113Z,2.30
2018-10-02T22:39:07.106Z,2.53
2018-10-02T22:41:34.467Z,2.53
2018-10-02T22:44:01.845Z,2.80
2018-10-02T22:46:29.237Z,2.30
2018-10-02T22:48:56.586Z,2.20
2018-10-02T22:51:23.952Z,2.17
2018-10-02T22:53:51.696Z,2.00
2018-10-02T22:56:19.156Z,1.60
2018-10-02T22:58:46.551Z,1.63
2018-10-02T23:01:13.967Z,1.57
2018-10-02T23:03:41.440Z,2.27
2018-10-02T23:06:08.801Z,1.90
2018-10-02T23:08:36.176Z,2.10
2018-10-02T23:11:03.628Z,2.03
2018-10-02T23:13:30.977Z,2.33
2018-10-02T23:15:58.361Z,2.50
2018-10-02T23:18:25.740Z,2.10
2018-10-02T23:20:53.129Z,2.30
2018-10-02T23:23:20.668Z,2.57
2018-10-02T23:25:48.041Z,2.60
2018-10-02T23:28:15.453Z,2.60
2018-10-02T23:30:42.837Z,2.70
2018-10-02T23:33:10.234Z,2.60
2018-10-02T23:35:37.595Z,2.53
2018-10-02T23:38:05.033Z,2.30
2018-10-02T23:40:32.451Z,2.87
2018-10-02T23:42:59.821Z,2.77
2018-10-02T23:45:27.217Z,2.40
2018-10-02T23:47:54.593Z,3.20
2018-10-02T23:50:21.969Z,2.80
2018-10-02T23:52:49.530Z,2.73
2018-10-02T23:55:16.885Z,2.87
2018-10-02T23:57:44.270Z,3.10
